createdAt,value
2019-05-29T00:00:34.271Z,3.63
2019-05-29T00:03:02.754Z,3.70
2019-05-29T00:05:31.166Z,3.70
2019-05-29T00:07:59.625Z,3.43
2019-05-29T00:10:28.038Z,3.70
2019-05-29T00:12:56.484Z,3.77
2019-05-29T00:15:24.951Z,3.80
2019-05-29T00:17:53.401Z,3.67
2019-05-29T00:20:21.831Z,3.10
2019-05-29T00:22:50.272Z,3.30
2019-05-29T00:25:18.898Z,2.80
2019-05-29T00:27:47.506Z,3.27
2019-05-29T00:30:16.990Z,3.00
2019-05-29T00:32:45.575Z,2.90
2019-05-29T00:35:14.409Z,2.70
2019-05-29T00:37:42.825Z,2.90
2019-05-29T00:40:12.857Z,2.97
2019-05-29T00:42:41.529Z,3.03
2019-05-29T00:45:11.461Z,2.80
2019-05-29T00:47:39.978Z,3.27
2019-05-29T00:50:08.520Z,3.10
2019-05-29T00:52:36.943Z,2.80
2019-05-29T00:55:06.822Z,2.80
2019-05-29T00:57:35.247Z,2.43
2019-05-29T01:00:05.479Z,2.80
2019-05-29T01:02:33.927Z,2.80
2019-05-29T01:05:02.360Z,2.70
2019-05-29T01:07:30.791Z,3.37
2019-05-29T01:09:59.223Z,2.83
2019-05-29T01:12:27.634Z,2.73
2019-05-29T01:14:56.196Z,2.80
2019-05-29T01:17:24.598Z,2.70
2019-05-29T01:19:53.012Z,2.90
2019-05-29T01:22:22.426Z,2.60
2019-05-29T01:24:50.925Z,3.00
2019-05-29T01:27:19.322Z,3.30
2019-05-29T01:29:47.749Z,3.30
2019-05-29T01:32:17.283Z,3.43
2019-05-29T01:34:45.963Z,3.47
2019-05-29T01:37:15.997Z,3.03
2019-05-29T01:39:44.545Z,3.40
2019-05-29T01:42:12.967Z,3.53
2019-05-29T01:44:41.365Z,2.60
2019-05-29T01:47:09.799Z,3.03
2019-05-29T01:49:38.214Z,2.83
2019-05-29T01:52:06.626Z,2.97
2019-05-29T01:54:35.076Z,2.83
2019-05-29T01:57:03.544Z,2.93
2019-05-29T01:59:31.972Z,2.83
2019-05-29T02:02:00.395Z,3.30
2019-05-29T02:04:28.818Z,3.17
2019-05-29T02:06:57.238Z,2.93
2019-05-29T02:09:25.656Z,3.00
2019-05-29T02:11:54.081Z,3.20
2019-05-29T02:14:22.766Z,3.47
2019-05-29T02:16:51.292Z,3.30
2019-05-29T02:19:20.031Z,3.20
2019-05-29T02:21:48.616Z,5.17
2019-05-29T02:24:17.071Z,2.90
2019-05-29T02:26:45.523Z,2.60
2019-05-29T02:29:13.943Z,2.73
2019-05-29T02:31:42.351Z,3.20
2019-05-29T02:34:10.785Z,2.67
2019-05-29T02:36:39.252Z,2.67
2019-05-29T02:39:08.390Z,2.63
2019-05-29T02:41:37.097Z,3.03
2019-05-29T02:44:05.698Z,3.00
2019-05-29T02:46:34.202Z,3.03
2019-05-29T02:49:02.619Z,3.33
2019-05-29T02:51:31.043Z,2.93
2019-05-29T02:53:59.527Z,3.20
2019-05-29T02:56:29.080Z,3.13
2019-05-29T02:58:57.574Z,3.23
2019-05-29T03:01:27.643Z,2.40
2019-05-29T03:03:56.134Z,3.20
2019-05-29T03:06:26.242Z,3.10
2019-05-29T03:08:55.099Z,3.47
2019-05-29T03:11:25.069Z,3.43
2019-05-29T03:13:53.652Z,3.80
2019-05-29T03:16:23.932Z,3.30
2019-05-29T03:18:52.222Z,3.77
2019-05-29T03:21:20.647Z,3.50
2019-05-29T03:23:49.072Z,3.40
2019-05-29T03:26:17.504Z,3.70
2019-05-29T03:28:45.935Z,3.50
2019-05-29T03:31:14.353Z,3.70
2019-05-29T03:33:48.629Z,3.50
2019-05-29T03:36:12.907Z,3.30
2019-05-29T03:38:41.357Z,3.37
2019-05-29T03:41:09.803Z,2.97
2019-05-29T03:43:38.817Z,3.43
2019-05-29T03:46:07.327Z,3.50
2019-05-29T03:48:35.738Z,3.33
2019-05-29T03:51:04.224Z,2.80
2019-05-29T03:53:33.890Z,2.90
2019-05-29T03:56:03.556Z,3.53
2019-05-29T03:58:33.064Z,3.70
2019-05-29T04:01:02.555Z,3.27
2019-05-29T04:03:31.205Z,2.73
2019-05-29T04:06:00.139Z,3.00
2019-05-29T04:08:29.490Z,3.57
2019-05-29T04:10:58.701Z,2.83
2019-05-29T04:13:27.707Z,3.70
2019-05-29T04:15:59.992Z,3.63
2019-05-29T04:18:29.740Z,3.77
2019-05-29T04:21:00.515Z,3.23
2019-05-29T04:23:32.140Z,3.10
2019-05-29T04:26:02.513Z,3.47
2019-05-29T04:28:34.483Z,3.63
2019-05-29T04:31:02.970Z,3.87
2019-05-29T04:33:32.599Z,4.20
2019-05-29T04:36:02.485Z,4.40
2019-05-29T04:38:31.583Z,4.10
2019-05-29T04:41:01.063Z,3.80
2019-05-29T04:43:31.140Z,3.80
2019-05-29T04:45:59.622Z,3.93
2019-05-29T04:48:29.452Z,3.43
2019-05-29T04:50:58.244Z,3.80
2019-05-29T04:53:26.727Z,3.63
2019-05-29T04:55:55.226Z,3.37
2019-05-29T04:58:23.641Z,3.33
2019-05-29T05:00:58.953Z,3.50
2019-05-29T05:03:22.208Z,3.80
2019-05-29T05:05:50.635Z,3.67
2019-05-29T05:08:19.038Z,3.80
2019-05-29T05:10:47.465Z,3.90
2019-05-29T05:13:15.942Z,3.80
2019-05-29T05:15:46.528Z,3.20
2019-05-29T05:18:15.020Z,4.20
2019-05-29T05:20:43.427Z,3.87
2019-05-29T05:23:11.873Z,3.50
2019-05-29T05:25:41.013Z,3.83
2019-05-29T05:28:09.654Z,4.07
2019-05-29T05:30:38.492Z,3.83
2019-05-29T05:33:06.975Z,3.93
2019-05-29T05:35:36.729Z,4.17
2019-05-29T05:38:05.393Z,4.37
2019-05-29T05:40:37.078Z,4.20
2019-05-29T05:43:05.206Z,3.77
2019-05-29T05:45:35.003Z,3.90
2019-05-29T05:48:03.655Z,4.43
2019-05-29T05:50:33.198Z,3.83
2019-05-29T05:53:01.763Z,4.73
2019-05-29T05:55:31.390Z,5.53
2019-05-29T05:58:00.905Z,5.57
2019-05-29T06:00:31.911Z,5.33
2019-05-29T06:03:00.681Z,5.73
2019-05-29T06:05:29.175Z,5.13
2019-05-29T06:07:57.734Z,5.53
2019-05-29T06:10:26.266Z,5.00
2019-05-29T06:13:14.044Z,5.60
2019-05-29T06:15:43.035Z,4.90
2019-05-29T06:18:21.032Z,6.20
2019-05-29T06:20:43.094Z,5.43
2019-05-29T06:23:11.640Z,6.13
2019-05-29T06:25:40.771Z,6.07
2019-05-29T06:28:10.215Z,5.87
2019-05-29T06:30:40.517Z,6.43
2019-05-29T06:33:08.784Z,6.40
2019-05-29T06:35:37.567Z,6.10
2019-05-29T06:38:06.195Z,5.20
2019-05-29T06:40:38.285Z,6.33
2019-05-29T06:43:09.899Z,8.40
2019-05-29T06:45:38.155Z,6.07
2019-05-29T06:48:08.478Z,5.77
2019-05-29T06:50:37.382Z,5.87
2019-05-29T06:53:06.150Z,5.80
2019-05-29T06:55:35.826Z,4.53
2019-05-29T06:58:04.446Z,6.77
2019-05-29T07:00:35.668Z,5.97
2019-05-29T07:03:03.060Z,7.97
2019-05-29T07:05:31.563Z,6.33
2019-05-29T07:08:17.059Z,5.60
2019-05-29T07:10:30.163Z,5.57
2019-05-29T07:12:58.568Z,7.60
2019-05-29T07:15:27.003Z,5.33
2019-05-29T07:17:55.483Z,8.03
2019-05-29T07:20:23.986Z,5.63
2019-05-29T07:22:52.474Z,4.87
2019-05-29T07:25:20.890Z,5.63
2019-05-29T07:27:49.312Z,6.60
2019-05-29T07:30:20.165Z,9.43
2019-05-29T07:32:56.438Z,7.03
2019-05-29T07:35:18.760Z,6.83
2019-05-29T07:37:48.097Z,6.30
2019-05-29T07:40:16.712Z,7.30
2019-05-29T07:42:50.418Z,6.67
2019-05-29T07:45:15.598Z,11.13
2019-05-29T07:47:44.712Z,8.90
2019-05-29T07:50:13.560Z,7.43
2019-05-29T07:52:43.342Z,7.00
2019-05-29T07:55:12.270Z,7.20
2019-05-29T07:57:40.946Z,8.90
2019-05-29T08:00:10.467Z,7.50
2019-05-29T08:02:39.372Z,9.17
2019-05-29T08:05:09.005Z,6.27
2019-05-29T08:07:37.510Z,7.43
2019-05-29T08:10:07.080Z,6.67
2019-05-29T08:12:35.488Z,6.07
2019-05-29T08:15:04.820Z,8.40
2019-05-29T08:17:33.296Z,6.80
2019-05-29T08:20:06.858Z,6.47
2019-05-29T08:22:34.483Z,6.77
2019-05-29T08:25:02.044Z,7.33
2019-05-29T08:27:30.453Z,6.57
2019-05-29T08:29:58.883Z,6.47
2019-05-29T08:32:27.328Z,5.80
2019-05-29T08:34:55.817Z,6.97
2019-05-29T08:37:24.254Z,6.30
2019-05-29T08:39:52.789Z,6.73
2019-05-29T08:42:23.595Z,6.97
2019-05-29T08:44:51.692Z,7.37
2019-05-29T08:47:20.169Z,5.60
2019-05-29T08:49:51.620Z,6.10
2019-05-29T08:52:18.725Z,6.10
2019-05-29T08:54:48.090Z,6.70
2019-05-29T08:57:16.558Z,7.50
2019-05-29T08:59:44.992Z,7.10
2019-05-29T09:02:13.421Z,6.50
2019-05-29T09:04:43.031Z,6.47
2019-05-29T09:07:11.517Z,6.30
2019-05-29T09:09:39.934Z,6.50
2019-05-29T09:12:08.433Z,5.63
2019-05-29T09:14:36.856Z,7.57
2019-05-29T09:17:05.301Z,5.80
2019-05-29T09:19:33.753Z,6.50
2019-05-29T09:22:02.235Z,7.90
2019-05-29T09:24:30.632Z,6.77
2019-05-29T09:26:59.066Z,5.70
2019-05-29T09:29:27.491Z,5.70
2019-05-29T09:31:55.925Z,6.47
2019-05-29T09:34:24.429Z,5.73
2019-05-29T09:36:55.636Z,5.40
2019-05-29T09:39:23.316Z,5.67
2019-05-29T09:41:51.746Z,7.53
2019-05-29T09:44:33.921Z,6.70
2019-05-29T09:46:50.292Z,9.17
2019-05-29T09:49:20.190Z,6.30
2019-05-29T09:51:48.867Z,5.47
2019-05-29T09:54:17.313Z,5.73
2019-05-29T09:56:45.797Z,7.33
2019-05-29T09:59:14.219Z,5.97
2019-05-29T10:01:42.666Z,6.50
2019-05-29T10:04:11.150Z,5.60
2019-05-29T10:06:39.579Z,5.80
2019-05-29T10:09:09.239Z,5.67
2019-05-29T10:11:37.726Z,5.03
2019-05-29T10:14:06.284Z,5.33
2019-05-29T10:16:34.718Z,6.33
2019-05-29T10:19:03.340Z,6.70
2019-05-29T10:21:39.958Z,6.00
2019-05-29T10:24:03.994Z,7.77
2019-05-29T10:26:32.694Z,5.83
2019-05-29T10:29:08.179Z,5.60
2019-05-29T10:31:31.416Z,6.60
2019-05-29T10:33:59.904Z,6.80
2019-05-29T10:36:28.330Z,5.83
2019-05-29T10:38:56.805Z,5.90
2019-05-29T10:41:25.239Z,6.40
2019-05-29T10:43:53.669Z,6.30
2019-05-29T10:46:22.119Z,7.73
2019-05-29T10:48:53.770Z,7.03
2019-05-29T10:51:20.755Z,6.70
2019-05-29T10:53:50.351Z,7.00
2019-05-29T10:56:21.183Z,7.37
2019-05-29T10:58:55.720Z,6.40
2019-05-29T11:01:19.622Z,8.10
2019-05-29T11:03:49.240Z,7.70
2019-05-29T11:06:17.850Z,6.13
2019-05-29T11:08:46.274Z,9.67
2019-05-29T11:11:14.719Z,6.57
2019-05-29T11:13:43.162Z,6.60
2019-05-29T11:16:11.593Z,6.67
2019-05-29T11:18:40.020Z,8.70
2019-05-29T11:21:08.612Z,5.97
2019-05-29T11:23:37.017Z,6.10
2019-05-29T11:26:05.558Z,5.43
2019-05-29T11:28:33.989Z,7.63
2019-05-29T11:31:06.009Z,5.53
2019-05-29T11:33:32.562Z,7.57
2019-05-29T11:36:10.743Z,5.63
2019-05-29T11:38:31.136Z,6.37
2019-05-29T11:41:23.690Z,5.30
2019-05-29T11:43:29.794Z,4.63
2019-05-29T11:45:59.486Z,5.30
2019-05-29T11:48:28.216Z,5.63
2019-05-29T11:50:56.618Z,5.10
2019-05-29T11:53:25.012Z,5.20
2019-05-29T11:55:53.996Z,5.30
2019-05-29T11:58:30.999Z,4.47
2019-05-29T12:00:52.929Z,4.77
2019-05-29T12:03:21.451Z,4.47
2019-05-29T12:05:51.067Z,4.30
2019-05-29T12:08:19.773Z,4.17
2019-05-29T12:10:48.187Z,3.90
2019-05-29T12:13:16.585Z,6.17
2019-05-29T12:15:45.027Z,5.30
2019-05-29T12:18:23.407Z,4.77
2019-05-29T12:20:43.764Z,5.70
2019-05-29T12:23:25.223Z,5.13
2019-05-29T12:25:42.460Z,5.40
2019-05-29T12:28:10.874Z,5.90
2019-05-29T12:30:39.346Z,6.00
2019-05-29T12:33:08.022Z,6.17
2019-05-29T12:35:36.436Z,6.00
2019-05-29T12:38:04.937Z,5.83
2019-05-29T12:40:33.448Z,6.03
2019-05-29T12:43:02.021Z,6.30
2019-05-29T12:45:30.434Z,6.17
2019-05-29T12:47:59.821Z,6.60
2019-05-29T12:50:28.723Z,6.93
2019-05-29T12:52:57.709Z,6.17
2019-05-29T12:55:26.343Z,6.70
2019-05-29T12:57:55.899Z,6.50
2019-05-29T13:00:24.792Z,5.50
2019-05-29T13:02:54.445Z,4.67
2019-05-29T13:05:23.195Z,5.43
2019-05-29T13:07:51.609Z,5.17
2019-05-29T13:10:29.834Z,6.10
2019-05-29T13:12:51.686Z,6.13
2019-05-29T13:15:20.927Z,5.03
2019-05-29T13:17:49.351Z,6.43
2019-05-29T13:20:21.997Z,6.57
2019-05-29T13:22:48.467Z,4.83
2019-05-29T13:25:17.115Z,5.90
2019-05-29T13:27:45.550Z,5.60
2019-05-29T13:30:16.255Z,5.53
2019-05-29T13:32:44.768Z,4.77
2019-05-29T13:35:13.875Z,5.10
2019-05-29T13:37:42.366Z,5.43
2019-05-29T13:40:11.235Z,5.57
2019-05-29T13:42:39.795Z,5.20
2019-05-29T13:45:17.915Z,5.53
2019-05-29T13:47:40.306Z,4.93
2019-05-29T13:50:12.038Z,5.60
2019-05-29T13:52:39.096Z,5.00
2019-05-29T13:55:08.356Z,4.53
2019-05-29T13:57:39.724Z,4.80
2019-05-29T14:00:30.376Z,6.13
2019-05-29T14:02:41.042Z,7.90
2019-05-29T14:05:10.020Z,4.90
2019-05-29T14:07:38.519Z,5.23
2019-05-29T14:10:07.852Z,4.90
2019-05-29T14:12:38.032Z,5.37
2019-05-29T14:15:08.263Z,4.40
2019-05-29T14:17:37.024Z,5.40
2019-05-29T14:20:08.839Z,5.50
2019-05-29T14:22:37.430Z,5.13
2019-05-29T14:25:07.495Z,5.57
2019-05-29T14:27:35.987Z,4.93
2019-05-29T14:30:08.531Z,5.30
2019-05-29T14:32:37.907Z,5.00
2019-05-29T14:35:09.480Z,4.83
2019-05-29T14:37:39.438Z,5.57
2019-05-29T14:40:08.156Z,5.37
2019-05-29T14:42:36.645Z,5.43
2019-05-29T14:45:10.175Z,4.47
2019-05-29T14:47:38.919Z,5.33
2019-05-29T14:50:08.798Z,4.53
2019-05-29T14:52:37.671Z,4.17
2019-05-29T14:55:09.349Z,4.17
2019-05-29T14:57:37.961Z,6.13
2019-05-29T15:00:20.651Z,5.40
2019-05-29T15:02:41.622Z,4.97
2019-05-29T15:05:11.723Z,4.50
2019-05-29T15:07:40.704Z,12.37
2019-05-29T15:10:22.650Z,6.00
2019-05-29T15:12:39.702Z,4.17
2019-05-29T15:15:11.096Z,3.90
2019-05-29T15:17:39.508Z,5.53
2019-05-29T15:20:09.757Z,4.90
2019-05-29T15:22:38.590Z,25.20
2019-05-29T15:25:16.765Z,5.30
2019-05-29T15:27:38.194Z,18.60
2019-05-29T15:30:11.126Z,10.50
2019-05-29T15:32:39.570Z,3.60
2019-05-29T15:35:12.770Z,3.80
2019-05-29T15:37:38.375Z,3.97
2019-05-29T15:40:08.807Z,4.37
2019-05-29T15:42:37.367Z,4.47
2019-05-29T15:45:07.783Z,6.10
2019-05-29T15:47:36.278Z,7.10
2019-05-29T15:50:09.220Z,7.27
2019-05-29T15:52:37.830Z,4.63
2019-05-29T15:55:21.241Z,4.50
2019-05-29T15:57:38.438Z,4.23
2019-05-29T16:00:09.111Z,4.50
2019-05-29T16:02:37.749Z,4.10
2019-05-29T16:05:08.607Z,3.93
2019-05-29T16:07:37.218Z,4.10
2019-05-29T16:10:13.071Z,4.03
2019-05-29T16:12:40.538Z,3.50
2019-05-29T16:15:11.073Z,4.63
2019-05-29T16:17:39.724Z,3.97
2019-05-29T16:20:10.422Z,3.90
2019-05-29T16:22:39.268Z,3.80
2019-05-29T16:25:08.354Z,3.80
2019-05-29T16:27:36.790Z,4.00
2019-05-29T16:30:08.293Z,2.90
2019-05-29T16:32:36.724Z,3.43
2019-05-29T16:35:10.895Z,3.33
2019-05-29T16:37:39.606Z,3.80
2019-05-29T16:40:11.604Z,3.63
2019-05-29T16:42:40.254Z,4.00
2019-05-29T16:45:10.548Z,3.60
2019-05-29T16:47:39.415Z,3.50
2019-05-29T16:50:08.789Z,3.37
2019-05-29T16:52:37.844Z,3.50
2019-05-29T16:55:06.796Z,2.87
2019-05-29T16:57:35.217Z,3.77
2019-05-29T17:00:08.263Z,3.27
2019-05-29T17:02:36.755Z,3.10
2019-05-29T17:05:06.833Z,3.17
2019-05-29T17:07:35.310Z,3.00
2019-05-29T17:10:07.497Z,3.47
2019-05-29T17:12:35.921Z,3.03
2019-05-29T17:15:07.385Z,3.20
2019-05-29T17:17:35.911Z,4.10
2019-05-29T17:20:07.567Z,3.13
2019-05-29T17:22:35.998Z,3.30
2019-05-29T17:25:05.487Z,3.23
2019-05-29T17:27:34.046Z,3.30
2019-05-29T17:30:02.476Z,3.30
2019-05-29T17:32:30.906Z,3.10
2019-05-29T17:34:59.359Z,4.33
2019-05-29T17:37:27.798Z,3.20
2019-05-29T17:39:56.283Z,3.47
2019-05-29T17:42:24.741Z,3.30
2019-05-29T17:44:53.166Z,3.37
2019-05-29T17:47:21.603Z,2.67
2019-05-29T17:49:50.033Z,3.40
2019-05-29T17:52:19.661Z,3.20
2019-05-29T17:54:48.273Z,3.13
2019-05-29T17:57:18.100Z,2.90
2019-05-29T17:59:46.731Z,3.30
2019-05-29T18:02:16.073Z,3.30
2019-05-29T18:04:44.727Z,2.60
2019-05-29T18:07:13.168Z,5.50
2019-05-29T18:09:41.586Z,3.50
2019-05-29T18:12:09.997Z,2.87
2019-05-29T18:14:38.424Z,3.83
2019-05-29T18:17:06.858Z,3.50
2019-05-29T18:19:35.338Z,3.30
2019-05-29T18:22:03.839Z,3.50
2019-05-29T18:24:32.310Z,3.10
2019-05-29T18:27:00.741Z,3.07
2019-05-29T18:29:29.751Z,3.17
2019-05-29T18:31:58.429Z,3.70
2019-05-29T18:34:27.123Z,3.23
2019-05-29T18:36:55.556Z,3.10
2019-05-29T18:39:24.251Z,3.20
2019-05-29T18:41:52.674Z,3.03
2019-05-29T18:44:21.131Z,3.63
2019-05-29T18:46:49.611Z,3.30
2019-05-29T18:49:18.028Z,3.47
2019-05-29T18:51:46.451Z,3.67
2019-05-29T18:54:14.897Z,3.00
2019-05-29T18:56:43.370Z,2.97
2019-05-29T18:59:11.885Z,3.43
2019-05-29T19:01:40.301Z,3.30
2019-05-29T19:04:08.787Z,3.20
2019-05-29T19:06:37.215Z,3.40
2019-05-29T19:09:07.653Z,3.30
2019-05-29T19:11:36.098Z,2.90
2019-05-29T19:14:05.261Z,2.77
2019-05-29T19:16:33.684Z,5.70
2019-05-29T19:19:02.118Z,3.60
2019-05-29T19:21:30.621Z,3.33
2019-05-29T19:23:59.045Z,3.03
2019-05-29T19:26:28.694Z,3.30
2019-05-29T19:28:57.232Z,2.70
2019-05-29T19:31:26.984Z,2.97
2019-05-29T19:33:55.562Z,3.53
2019-05-29T19:36:23.983Z,3.17
2019-05-29T19:38:52.402Z,3.00
2019-05-29T19:41:21.092Z,3.00
2019-05-29T19:43:49.534Z,3.53
2019-05-29T19:46:18.020Z,3.60
2019-05-29T19:48:46.439Z,3.90
2019-05-29T19:51:14.856Z,3.50
2019-05-29T19:53:43.281Z,3.07
2019-05-29T19:56:11.793Z,3.10
2019-05-29T19:58:40.218Z,3.20
2019-05-29T20:01:08.701Z,3.40
2019-05-29T20:03:37.121Z,2.93
2019-05-29T20:06:05.708Z,3.57
2019-05-29T20:08:37.411Z,2.93
2019-05-29T20:11:06.297Z,3.07
2019-05-29T20:13:35.837Z,3.60
2019-05-29T20:16:04.508Z,3.10
2019-05-29T20:18:34.066Z,3.20
2019-05-29T20:21:02.627Z,2.67
2019-05-29T20:23:36.995Z,2.70
2019-05-29T20:26:05.514Z,3.27
2019-05-29T20:28:34.248Z,2.80
2019-05-29T20:31:02.727Z,2.80
2019-05-29T20:33:32.382Z,2.80
2019-05-29T20:36:00.894Z,2.90
2019-05-29T20:38:29.374Z,3.23
2019-05-29T20:40:57.822Z,2.97
2019-05-29T20:43:26.275Z,3.40
2019-05-29T20:45:54.687Z,3.70
2019-05-29T20:48:23.111Z,2.73
2019-05-29T20:50:51.553Z,2.87
2019-05-29T20:53:19.967Z,3.40
2019-05-29T20:55:48.418Z,3.17
2019-05-29T20:58:24.706Z,2.80
2019-05-29T21:00:46.971Z,2.57
2019-05-29T21:03:15.407Z,3.10
2019-05-29T21:05:43.872Z,3.30
2019-05-29T21:08:12.296Z,3.20
2019-05-29T21:10:41.933Z,2.77
2019-05-29T21:13:11.536Z,2.80
2019-05-29T21:15:42.051Z,3.60
2019-05-29T21:18:10.480Z,3.10
2019-05-29T21:20:40.337Z,3.10
2019-05-29T21:23:08.888Z,3.10
2019-05-29T21:25:38.495Z,2.90
2019-05-29T21:31:35.921Z,3.40
2019-05-29T21:34:04.486Z,3.43
2019-05-29T21:36:32.914Z,3.27
2019-05-29T21:39:02.282Z,3.27
2019-05-29T21:41:40.901Z,3.37
2019-05-29T21:44:10.269Z,3.07
2019-05-29T21:57:21.928Z,3.23
2019-05-29T21:59:57.469Z,2.90
2019-05-29T22:02:25.907Z,2.97
2019-05-29T22:04:54.340Z,3.53
2019-05-29T22:07:22.747Z,3.40
2019-05-29T22:09:52.292Z,2.77
2019-05-29T22:12:20.871Z,3.40
2019-05-29T22:14:50.691Z,3.63
2019-05-29T22:17:19.435Z,3.23
2019-05-29T22:19:47.926Z,3.63
2019-05-29T22:22:16.329Z,3.47
2019-05-29T22:24:44.918Z,3.50
2019-05-29T22:27:14.014Z,3.23
2019-05-29T23:42:36.880Z,3.73
2019-05-29T23:45:09.332Z,3.67
2019-05-29T23:47:37.753Z,3.60
2019-05-29T23:50:08.561Z,3.47
2019-05-29T23:52:37.036Z,6.20
2019-05-29T23:55:07.099Z,3.70
2019-05-29T23:57:35.516Z,3.23
